sensor_id;sensor_type;location;lat;lon;timestamp;P1;durP1;ratioP1;P2;durP2;ratioP2
46447;SDS011;32145;50.390;30.778;2023-02-01T00:00:15;18.05;;;9.75;;
46447;SDS011;32145;50.390;30.778;2023-02-01T00:02:59;22.77;;;10.15;;
46447;SDS011;32145;50.390;30.778;2023-02-01T00:05:53;20.80;;;9.07;;
46447;SDS011;32145;50.390;30.778;2023-02-01T00:08:38;22.30;;;10.60;;
46447;SDS011;32145;50.390;30.778;2023-02-01T00:11:23;17.02;;;8.48;;
46447;SDS011;32145;50.390;30.778;2023-02-01T00:14:07;20.83;;;8.65;;
46447;SDS011;32145;50.390;30.778;2023-02-01T00:16:51;19.23;;;8.75;;
46447;SDS011;32145;50.390;30.778;2023-02-01T00:19:35;22.52;;;9.68;;
46447;SDS011;32145;50.390;30.778;2023-02-01T00:22:21;19.13;;;9.27;;
46447;SDS011;32145;50.390;30.778;2023-02-01T00:25:05;20.63;;;9.55;;
46447;SDS011;32145;50.390;30.778;2023-02-01T00:27:49;20.17;;;9.48;;
46447;SDS011;32145;50.390;30.778;2023-02-01T00:30:33;19.15;;;9.10;;
46447;SDS011;32145;50.390;30.778;2023-02-01T00:33:17;19.42;;;9.63;;
46447;SDS011;32145;50.390;30.778;2023-02-01T00:36:02;19.27;;;9.27;;
46447;SDS011;32145;50.390;30.778;2023-02-01T00:38:49;21.42;;;9.13;;
46447;SDS011;32145;50.390;30.778;2023-02-01T00:41:33;19.77;;;9.52;;
46447;SDS011;32145;50.390;30.778;2023-02-01T00:44:18;23.30;;;9.85;;
46447;SDS011;32145;50.390;30.778;2023-02-01T00:47:02;19.38;;;9.40;;
46447;SDS011;32145;50.390;30.778;2023-02-01T00:49:46;19.20;;;9.73;;
46447;SDS011;32145;50.390;30.778;2023-02-01T00:52:30;23.83;;;9.82;;
46447;SDS011;32145;50.390;30.778;2023-02-01T00:55:16;21.17;;;10.15;;
46447;SDS011;32145;50.390;30.778;2023-02-01T00:58:00;25.42;;;12.68;;
46447;SDS011;32145;50.390;30.778;2023-02-01T01:00:44;32.38;;;14.85;;
46447;SDS011;32145;50.390;30.778;2023-02-01T01:03:28;28.30;;;12.43;;
46447;SDS011;32145;50.390;30.778;2023-02-01T01:06:12;29.15;;;12.27;;
46447;SDS011;32145;50.390;30.778;2023-02-01T01:08:59;23.33;;;10.63;;
46447;SDS011;32145;50.390;30.778;2023-02-01T01:11:46;21.35;;;10.68;;
46447;SDS011;32145;50.390;30.778;2023-02-01T01:14:30;22.92;;;10.52;;
46447;SDS011;32145;50.390;30.778;2023-02-01T01:17:14;19.42;;;8.90;;
46447;SDS011;32145;50.390;30.778;2023-02-01T01:19:58;19.98;;;9.77;;
46447;SDS011;32145;50.390;30.778;2023-02-01T01:22:41;21.13;;;9.65;;
46447;SDS011;32145;50.390;30.778;2023-02-01T01:25:26;18.15;;;9.98;;
46447;SDS011;32145;50.390;30.778;2023-02-01T01:28:11;20.23;;;9.40;;
46447;SDS011;32145;50.390;30.778;2023-02-01T01:30:55;19.70;;;10.55;;
46447;SDS011;32145;50.390;30.778;2023-02-01T01:33:39;22.45;;;9.10;;
46447;SDS011;32145;50.390;30.778;2023-02-01T01:36:24;22.35;;;9.73;;
46447;SDS011;32145;50.390;30.778;2023-02-01T01:39:08;17.45;;;9.13;;
46447;SDS011;32145;50.390;30.778;2023-02-01T01:41:52;19.20;;;8.85;;
46447;SDS011;32145;50.390;30.778;2023-02-01T01:47:46;16.20;;;9.07;;
46447;SDS011;32145;50.390;30.778;2023-02-01T01:50:33;20.38;;;10.13;;
46447;SDS011;32145;50.390;30.778;2023-02-01T01:53:22;16.85;;;8.27;;
46447;SDS011;32145;50.390;30.778;2023-02-01T01:58:54;19.02;;;9.02;;
46447;SDS011;32145;50.390;30.778;2023-02-01T02:01:41;21.23;;;9.80;;
46447;SDS011;32145;50.390;30.778;2023-02-01T02:04:25;23.13;;;10.02;;
46447;SDS011;32145;50.390;30.778;2023-02-01T02:07:10;23.75;;;10.05;;
46447;SDS011;32145;50.390;30.778;2023-02-01T02:09:57;17.90;;;9.80;;
46447;SDS011;32145;50.390;30.778;2023-02-01T02:12:42;22.92;;;12.30;;
46447;SDS011;32145;50.390;30.778;2023-02-01T02:15:30;24.40;;;10.73;;
46447;SDS011;32145;50.390;30.778;2023-02-01T02:18:17;20.33;;;9.63;;
46447;SDS011;32145;50.390;30.778;2023-02-01T02:21:14;17.45;;;9.07;;
46447;SDS011;32145;50.390;30.778;2023-02-01T02:24:19;20.67;;;9.88;;
46447;SDS011;32145;50.390;30.778;2023-02-01T02:27:21;22.00;;;9.23;;
46447;SDS011;32145;50.390;30.778;2023-02-01T02:30:21;22.77;;;10.68;;
46447;SDS011;32145;50.390;30.778;2023-02-01T02:36:29;23.58;;;11.05;;
46447;SDS011;32145;50.390;30.778;2023-02-01T02:39:21;26.42;;;11.57;;
46447;SDS011;32145;50.390;30.778;2023-02-01T02:42:14;40.92;;;19.15;;
46447;SDS011;32145;50.390;30.778;2023-02-01T02:45:08;41.40;;;18.42;;
46447;SDS011;32145;50.390;30.778;2023-02-01T02:48:00;42.40;;;19.65;;
46447;SDS011;32145;50.390;30.778;2023-02-01T02:50:55;30.08;;;14.07;;
46447;SDS011;32145;50.390;30.778;2023-02-01T02:53:46;34.33;;;12.55;;
46447;SDS011;32145;50.390;30.778;2023-02-01T02:56:36;30.20;;;12.55;;
46447;SDS011;32145;50.390;30.778;2023-02-01T02:59:21;26.52;;;11.80;;
46447;SDS011;32145;50.390;30.778;2023-02-01T03:02:09;29.05;;;11.32;;
46447;SDS011;32145;50.390;30.778;2023-02-01T03:04:55;28.30;;;12.57;;
46447;SDS011;32145;50.390;30.778;2023-02-01T03:07:48;25.42;;;11.98;;
46447;SDS011;32145;50.390;30.778;2023-02-01T03:13:36;19.50;;;8.27;;
46447;SDS011;32145;50.390;30.778;2023-02-01T03:16:28;19.73;;;9.63;;
46447;SDS011;32145;50.390;30.778;2023-02-01T03:22:04;20.95;;;9.27;;
46447;SDS011;32145;50.390;30.778;2023-02-01T03:24:53;21.95;;;9.35;;
46447;SDS011;32145;50.390;30.778;2023-02-01T03:27:40;26.83;;;8.95;;
46447;SDS011;32145;50.390;30.778;2023-02-01T03:30:32;21.45;;;9.68;;
46447;SDS011;32145;50.390;30.778;2023-02-01T03:33:20;20.77;;;9.77;;
46447;SDS011;32145;50.390;30.778;2023-02-01T03:36:09;20.92;;;9.88;;
46447;SDS011;32145;50.390;30.778;2023-02-01T03:39:02;20.63;;;8.73;;
46447;SDS011;32145;50.390;30.778;2023-02-01T03:41:53;26.63;;;9.05;;
46447;SDS011;32145;50.390;30.778;2023-02-01T03:44:40;25.48;;;9.48;;
46447;SDS011;32145;50.390;30.778;2023-02-01T03:47:30;20.05;;;9.77;;
46447;SDS011;32145;50.390;30.778;2023-02-01T03:50:20;21.17;;;10.73;;
46447;SDS011;32145;50.390;30.778;2023-02-01T03:53:06;25.77;;;8.57;;
46447;SDS011;32145;50.390;30.778;2023-02-01T03:55:53;29.60;;;11.82;;
46447;SDS011;32145;50.390;30.778;2023-02-01T03:58:40;31.38;;;11.90;;
46447;SDS011;32145;50.390;30.778;2023-02-01T04:01:25;37.95;;;14.23;;
46447;SDS011;32145;50.390;30.778;2023-02-01T04:04:10;31.90;;;12.90;;
46447;SDS011;32145;50.390;30.778;2023-02-01T04:06:54;39.10;;;14.75;;
46447;SDS011;32145;50.390;30.778;2023-02-01T04:09:39;28.05;;;12.45;;
46447;SDS011;32145;50.390;30.778;2023-02-01T04:12:23;25.10;;;10.45;;
46447;SDS011;32145;50.390;30.778;2023-02-01T04:15:09;21.85;;;9.10;;
46447;SDS011;32145;50.390;30.778;2023-02-01T04:17:53;32.75;;;12.23;;
46447;SDS011;32145;50.390;30.778;2023-02-01T04:20:37;39.42;;;14.02;;
46447;SDS011;32145;50.390;30.778;2023-02-01T04:23:21;57.70;;;19.60;;
46447;SDS011;32145;50.390;30.778;2023-02-01T04:26:05;35.95;;;16.23;;
46447;SDS011;32145;50.390;30.778;2023-02-01T04:28:49;45.78;;;17.92;;
46447;SDS011;32145;50.390;30.778;2023-02-01T04:31:34;44.30;;;16.63;;
46447;SDS011;32145;50.390;30.778;2023-02-01T04:34:18;34.25;;;14.65;;
46447;SDS011;32145;50.390;30.778;2023-02-01T04:37:02;44.78;;;15.48;;
46447;SDS011;32145;50.390;30.778;2023-02-01T04:39:46;38.40;;;14.07;;
46447;SDS011;32145;50.390;30.778;2023-02-01T04:42:30;27.35;;;11.95;;
46447;SDS011;32145;50.390;30.778;2023-02-01T04:45:14;48.05;;;17.90;;
46447;SDS011;32145;50.390;30.778;2023-02-01T04:48:00;51.20;;;20.20;;
46447;SDS011;32145;50.390;30.778;2023-02-01T04:50:43;44.78;;;18.42;;
46447;SDS011;32145;50.390;30.778;2023-02-01T04:53:28;66.32;;;22.27;;
46447;SDS011;32145;50.390;30.778;2023-02-01T04:56:12;60.80;;;20.55;;
46447;SDS011;32145;50.390;30.778;2023-02-01T04:58:56;45.50;;;18.08;;
46447;SDS011;32145;50.390;30.778;2023-02-01T05:01:40;35.38;;;12.77;;
46447;SDS011;32145;50.390;30.778;2023-02-01T05:04:26;42.30;;;14.77;;
46447;SDS011;32145;50.390;30.778;2023-02-01T05:07:10;41.67;;;12.75;;
46447;SDS011;32145;50.390;30.778;2023-02-01T05:09:54;27.52;;;12.13;;
46447;SDS011;32145;50.390;30.778;2023-02-01T05:12:38;49.25;;;14.88;;
46447;SDS011;32145;50.390;30.778;2023-02-01T05:15:22;44.63;;;15.45;;
46447;SDS011;32145;50.390;30.778;2023-02-01T05:18:06;32.78;;;13.43;;
46447;SDS011;32145;50.390;30.778;2023-02-01T05:20:51;44.58;;;15.40;;
46447;SDS011;32145;50.390;30.778;2023-02-01T05:23:35;35.05;;;14.15;;
46447;SDS011;32145;50.390;30.778;2023-02-01T05:26:19;36.25;;;14.43;;
46447;SDS011;32145;50.390;30.778;2023-02-01T05:29:03;32.80;;;12.50;;
46447;SDS011;32145;50.390;30.778;2023-02-01T05:31:48;25.23;;;10.32;;
46447;SDS011;32145;50.390;30.778;2023-02-01T05:34:32;25.40;;;10.32;;
46447;SDS011;32145;50.390;30.778;2023-02-01T05:37:18;24.17;;;11.27;;
46447;SDS011;32145;50.390;30.778;2023-02-01T05:40:02;28.85;;;12.43;;
46447;SDS011;32145;50.390;30.778;2023-02-01T05:42:46;38.97;;;16.70;;
46447;SDS011;32145;50.390;30.778;2023-02-01T05:45:30;32.28;;;14.00;;
46447;SDS011;32145;50.390;30.778;2023-02-01T05:48:14;42.38;;;16.27;;
46447;SDS011;32145;50.390;30.778;2023-02-01T05:50:58;32.95;;;14.63;;
46447;SDS011;32145;50.390;30.778;2023-02-01T05:53:44;37.53;;;14.85;;
46447;SDS011;32145;50.390;30.778;2023-02-01T05:56:28;30.58;;;12.13;;
46447;SDS011;32145;50.390;30.778;2023-02-01T05:59:11;36.45;;;14.35;;
46447;SDS011;32145;50.390;30.778;2023-02-01T06:01:56;30.20;;;12.20;;
46447;SDS011;32145;50.390;30.778;2023-02-01T06:04:39;27.90;;;12.50;;
46447;SDS011;32145;50.390;30.778;2023-02-01T06:07:23;33.47;;;12.48;;
46447;SDS011;32145;50.390;30.778;2023-02-01T06:10:09;29.33;;;11.75;;
46447;SDS011;32145;50.390;30.778;2023-02-01T06:12:54;26.83;;;11.23;;
46447;SDS011;32145;50.390;30.778;2023-02-01T06:15:38;27.48;;;11.90;;
46447;SDS011;32145;50.390;30.778;2023-02-01T06:18:22;26.58;;;12.13;;
46447;SDS011;32145;50.390;30.778;2023-02-01T06:21:07;35.05;;;12.38;;
46447;SDS011;32145;50.390;30.778;2023-02-01T06:23:51;34.22;;;13.18;;
46447;SDS011;32145;50.390;30.778;2023-02-01T06:26:37;44.13;;;16.83;;
46447;SDS011;32145;50.390;30.778;2023-02-01T06:29:23;40.53;;;14.20;;
46447;SDS011;32145;50.390;30.778;2023-02-01T06:32:07;46.33;;;16.42;;
46447;SDS011;32145;50.390;30.778;2023-02-01T06:34:51;65.13;;;18.42;;
46447;SDS011;32145;50.390;30.778;2023-02-01T06:37:35;37.00;;;14.32;;
46447;SDS011;32145;50.390;30.778;2023-02-01T06:40:20;36.58;;;14.00;;
46447;SDS011;32145;50.390;30.778;2023-02-01T06:43:05;33.95;;;12.18;;
46447;SDS011;32145;50.390;30.778;2023-02-01T06:45:49;36.30;;;13.50;;
46447;SDS011;32145;50.390;30.778;2023-02-01T06:48:34;42.15;;;15.38;;
46447;SDS011;32145;50.390;30.778;2023-02-01T06:51:18;33.78;;;12.25;;
46447;SDS011;32145;50.390;30.778;2023-02-01T06:54:07;31.75;;;12.40;;
46447;SDS011;32145;50.390;30.778;2023-02-01T06:56:50;26.98;;;12.13;;
46447;SDS011;32145;50.390;30.778;2023-02-01T06:59:36;46.83;;;23.77;;
46447;SDS011;32145;50.390;30.778;2023-02-01T07:02:20;53.88;;;19.83;;
46447;SDS011;32145;50.390;30.778;2023-02-01T07:05:05;33.70;;;14.30;;
46447;SDS011;32145;50.390;30.778;2023-02-01T07:07:49;40.40;;;14.23;;
